createdAt,value
2023-11-18T00:04:50.828Z,0
2023-11-18T00:09:46.780Z,0.02
2023-11-18T00:14:46.788Z,0
2023-11-18T00:19:46.944Z,0.03
2023-11-18T00:24:46.547Z,0
2023-11-18T00:29:46.785Z,0.01
2023-11-18T00:34:47.305Z,0.02
2023-11-18T00:39:46.887Z,0.03
2023-11-18T00:44:48.105Z,0.02
2023-11-18T00:49:44.524Z,0
2023-11-18T00:54:44.034Z,0
2023-11-18T00:59:44.084Z,0.02
2023-11-18T01:04:44.321Z,0
2023-11-18T01:09:44.083Z,0.01
2023-11-18T01:14:44.554Z,0
2023-11-18T01:19:44.213Z,0.03
2023-11-18T01:24:43.830Z,0.03
2023-11-18T01:29:42.485Z,0.01
2023-11-18T01:34:42.774Z,0.03
2023-11-18T01:39:42.539Z,0.02
2023-11-18T01:44:43.203Z,0.02
2023-11-18T01:49:42.459Z,0
2023-11-18T01:54:42.853Z,0.03
2023-11-18T01:59:42.535Z,0
2023-11-18T02:01:44.602Z,0
2023-11-18T02:06:05.330Z,0
2023-11-18T02:11:05.075Z,0.03
2023-11-18T02:16:04.472Z,0.01
2023-11-18T02:21:04.693Z,0.02
2023-11-18T02:26:04.450Z,0
2023-11-18T02:36:04.706Z,0
2023-11-18T02:41:04.527Z,0.02
2023-11-18T02:46:04.566Z,0.02
2023-11-18T02:51:12.428Z,0
2023-11-18T02:56:13.129Z,0.03
2023-11-18T03:00:34.204Z,0
2023-11-18T03:05:33.870Z,0.02
2023-11-18T03:10:33.775Z,0.02
2023-11-18T03:15:34.014Z,0.02
2023-11-18T03:20:34.115Z,0.03
2023-11-18T03:25:33.958Z,0.03
2023-11-18T03:30:31.352Z,0.02
2023-11-18T03:35:31.552Z,0
2023-11-18T03:40:31.581Z,0
2023-11-18T03:45:30.896Z,0.03
2023-11-18T03:50:31.048Z,0.03
2023-11-18T03:55:31.193Z,0.02
2023-11-18T04:00:08.003Z,0.03
2023-11-18T04:05:08.228Z,0.03
2023-11-18T04:10:05.288Z,0
2023-11-18T04:20:10.006Z,0.03
2023-11-18T04:25:05.009Z,0.02
2023-11-18T04:35:04.839Z,0
2023-11-18T04:40:05.029Z,0.03
2023-11-18T04:45:04.951Z,0.02
2023-11-18T04:50:05.907Z,0.02
2023-11-18T04:55:12.457Z,0.02
2023-11-18T04:59:45.619Z,0.02
2023-11-18T05:04:45.639Z,0.01
2023-11-18T05:09:45.444Z,0
2023-11-18T05:14:45.960Z,0.02
2023-11-18T05:19:45.291Z,0.03
2023-11-18T05:24:45.400Z,0.02
2023-11-18T05:29:43.560Z,0.02
2023-11-18T05:34:42.790Z,0.03
2023-11-18T05:39:42.585Z,0.02
2023-11-18T05:44:43.623Z,0.03
2023-11-18T05:49:45.177Z,0
2023-11-18T05:54:42.348Z,0
2023-11-18T05:59:43.162Z,0.02
2023-11-18T06:04:43.265Z,0
2023-11-18T06:09:43.159Z,0.02
2023-11-18T06:14:40.578Z,0
2023-11-18T06:19:39.801Z,0.03
2023-11-18T06:24:39.648Z,0.04
2023-11-18T06:29:40.115Z,0.08
2023-11-18T06:34:40.260Z,0.13
2023-11-18T06:39:39.869Z,0.22
2023-11-18T06:44:41.084Z,0.2
2023-11-18T06:49:41.218Z,0.33
2023-11-18T06:54:38.599Z,0.43
2023-11-18T06:59:38.381Z,0.57
2023-11-18T07:01:40.584Z,0.59
2023-11-18T07:06:11.446Z,0.76
2023-11-18T07:11:11.379Z,0.94
2023-11-18T07:16:11.601Z,1.09
2023-11-18T07:21:11.695Z,1.32
2023-11-18T07:26:08.988Z,1.54
2023-11-18T07:31:09.260Z,1.71
2023-11-18T07:36:09.160Z,2
2023-11-18T07:41:10.130Z,2.28
2023-11-18T07:46:10.050Z,2.41
2023-11-18T07:51:10.615Z,2.47
2023-11-18T07:56:11.656Z,2.49
2023-11-18T08:00:32.095Z,2.68
2023-11-18T08:05:32.716Z,3.18
2023-11-18T08:10:32.831Z,3.16
2023-11-18T08:15:32.745Z,3.46
2023-11-18T08:20:32.779Z,3.85
2023-11-18T08:25:32.378Z,3.95
2023-11-18T08:30:33.465Z,4.21
2023-11-18T08:35:29.997Z,4.38
2023-11-18T08:40:29.662Z,4.34
2023-11-18T08:45:31.909Z,4.46
2023-11-18T08:50:30.008Z,4.79
2023-11-18T08:55:29.640Z,5.09
2023-11-18T09:05:04.138Z,5.59
2023-11-18T09:10:03.586Z,5.75
2023-11-18T09:15:13.157Z,5.98
2023-11-18T09:20:13.085Z,6.21
2023-11-18T09:25:12.922Z,6.47
2023-11-18T09:30:13.486Z,6.25
2023-11-18T09:35:13.422Z,6.88
2023-11-18T09:40:03.040Z,7.1
2023-11-18T09:45:14.304Z,6.9
2023-11-18T09:50:13.465Z,6.91
2023-11-18T09:55:11.757Z,7.19
2023-11-18T10:05:12.243Z,7.06
2023-11-18T10:10:12.733Z,7.44
2023-11-18T10:15:12.827Z,7.34
2023-11-18T10:20:10.198Z,7.25
2023-11-18T10:25:10.498Z,7.06
2023-11-18T10:30:10.603Z,6.16
2023-11-18T10:35:11.354Z,5.59
2023-11-18T10:40:11.405Z,4.86
2023-11-18T10:45:12.317Z,5.22
2023-11-18T10:50:13.045Z,5.23
2023-11-18T10:55:09.986Z,4.52
2023-11-18T11:00:08.731Z,5.35
2023-11-18T11:05:09.977Z,4.79
2023-11-18T11:10:08.786Z,5.09
2023-11-18T11:15:09.503Z,5.17
2023-11-18T11:20:09.538Z,5.56
2023-11-18T11:24:56.417Z,5.47
2023-11-18T11:29:55.762Z,4.8
2023-11-18T11:34:55.767Z,4.57
2023-11-18T11:39:55.032Z,4.71
2023-11-18T11:44:56.435Z,4.8
2023-11-18T11:49:56.226Z,4.85
2023-11-18T11:54:55.288Z,4.6
2023-11-18T11:59:55.648Z,3.56
2023-11-18T12:04:52.950Z,3.43
2023-11-18T12:09:51.883Z,3.35
2023-11-18T12:14:51.985Z,2.98
2023-11-18T12:19:52.150Z,3.36
2023-11-18T12:24:52.162Z,3.21
2023-11-18T12:29:52.025Z,2.57
2023-11-18T12:34:52.310Z,2.45
2023-11-18T12:39:52.127Z,3.55
2023-11-18T12:44:53.458Z,4.09
2023-11-18T12:49:49.517Z,4.11
2023-11-18T12:54:49.128Z,3.5
2023-11-18T12:59:49.655Z,3.09
2023-11-18T13:04:50.997Z,3.21
2023-11-18T13:09:49.580Z,2.98
2023-11-18T13:14:50.136Z,2.81
2023-11-18T13:19:50.396Z,3.2
2023-11-18T13:24:51.332Z,3.19
2023-11-18T13:29:47.665Z,3.46
2023-11-18T13:34:47.473Z,3.46
2023-11-18T13:39:47.039Z,3.44
2023-11-18T13:44:47.604Z,3.69
2023-11-18T13:49:47.384Z,4.2
2023-11-18T13:54:47.552Z,4.04
2023-11-18T13:59:47.389Z,4.09
2023-11-18T14:04:47.581Z,3.88
2023-11-18T14:09:46.013Z,3.13
2023-11-18T14:14:45.472Z,2.19
2023-11-18T14:19:44.950Z,2.15
2023-11-18T14:24:45.231Z,1.68
2023-11-18T14:29:45.598Z,1.4
2023-11-18T14:34:44.852Z,1.34
2023-11-18T14:39:45.315Z,1.14
2023-11-18T14:44:45.063Z,1.13
2023-11-18T14:49:45.024Z,1.14
2023-11-18T14:54:42.626Z,1.05
2023-11-18T14:59:42.423Z,1.04
2023-11-18T15:01:44.980Z,1.04
2023-11-18T15:06:04.515Z,0.74
2023-11-18T15:11:04.205Z,0.58
2023-11-18T15:16:04.586Z,0.49
2023-11-18T15:26:04.488Z,0.37
2023-11-18T15:31:12.404Z,0.26
2023-11-18T15:36:13.225Z,0.18
2023-11-18T15:41:13.194Z,0.22
2023-11-18T15:46:13.778Z,0.16
2023-11-18T15:51:03.903Z,0.06
2023-11-18T15:56:13.838Z,0.05
2023-11-18T16:00:37.313Z,0.01
2023-11-18T16:05:35.631Z,0.02
2023-11-18T16:10:34.518Z,0.01
2023-11-18T16:15:34.774Z,0
2023-11-18T16:20:35.385Z,0.02
2023-11-18T16:25:34.609Z,0
2023-11-18T16:30:34.604Z,0
2023-11-18T16:35:34.568Z,0
2023-11-18T16:40:37.950Z,0
2023-11-18T16:45:32.042Z,0.01
2023-11-18T16:50:46.403Z,0
2023-11-18T16:55:41.415Z,0
2023-11-18T17:00:07.974Z,0.02
2023-11-18T17:05:07.884Z,0
2023-11-18T17:10:07.441Z,0
2023-11-18T17:15:07.993Z,0.03
2023-11-18T17:20:07.822Z,0.02
2023-11-18T17:25:08.820Z,0.03
2023-11-18T17:30:05.206Z,0
2023-11-18T17:35:04.749Z,0.03
2023-11-18T17:40:04.789Z,0.03
2023-11-18T17:45:05.358Z,0
2023-11-18T17:50:08.862Z,0.01
2023-11-18T17:55:05.321Z,0
2023-11-18T17:59:48.275Z,0.03
2023-11-18T18:04:48.183Z,0.03
2023-11-18T18:09:46.613Z,0.02
2023-11-18T18:14:47.433Z,0
2023-11-18T18:19:47.285Z,0
2023-11-18T18:24:47.654Z,0.02
2023-11-18T18:29:47.692Z,0.02
2023-11-18T18:34:47.997Z,0.03
2023-11-18T18:39:47.604Z,0.02
2023-11-18T18:44:47.752Z,0.01
2023-11-18T18:49:46.331Z,0
2023-11-18T18:54:46.604Z,0.02
2023-11-18T18:59:46.522Z,0
2023-11-18T19:04:46.788Z,0.01
2023-11-18T19:09:45.961Z,0.03
2023-11-18T19:14:46.272Z,0.03
2023-11-18T19:19:46.093Z,0.03
2023-11-18T19:24:45.882Z,0.03
2023-11-18T19:29:46.174Z,0.03
2023-11-18T19:34:43.541Z,0.02
2023-11-18T19:39:42.721Z,0.03
2023-11-18T19:44:42.772Z,0.02
2023-11-18T19:49:42.921Z,0.03
2023-11-18T19:54:43.161Z,0.01
2023-11-18T19:59:43.544Z,0
2023-11-18T20:01:49.334Z,0
2023-11-18T20:06:07.845Z,0
2023-11-18T20:11:05.060Z,0
2023-11-18T20:16:04.528Z,0.02
2023-11-18T20:21:04.610Z,0.01
2023-11-18T20:26:04.820Z,0.03
2023-11-18T20:31:04.510Z,0.01
2023-11-18T20:36:04.764Z,0.01
2023-11-18T20:41:05.069Z,0.03
2023-11-18T20:51:05.930Z,0.03
2023-11-18T20:56:13.503Z,0
2023-11-18T21:00:34.109Z,0
2023-11-18T21:05:35.280Z,0
2023-11-18T21:10:33.739Z,0.02
2023-11-18T21:15:33.591Z,0.02
2023-11-18T21:20:34.125Z,0.03
2023-11-18T21:25:33.693Z,0.01
2023-11-18T21:30:31.677Z,0.03
2023-11-18T21:35:31.623Z,0.03
2023-11-18T21:40:30.656Z,0.02
2023-11-18T21:45:30.647Z,0.02
2023-11-18T21:55:30.383Z,0.02
2023-11-18T22:00:07.806Z,0.01
2023-11-18T22:05:07.580Z,0
2023-11-18T22:10:07.282Z,0
2023-11-18T22:15:05.199Z,0.03
2023-11-18T22:20:04.252Z,0
2023-11-18T22:25:03.971Z,0.02
2023-11-18T22:30:04.290Z,0
2023-11-18T22:35:04.004Z,0.03
2023-11-18T22:40:04.033Z,0.03
2023-11-18T22:45:09.276Z,0.01
2023-11-18T22:50:04.290Z,0
2023-11-18T22:55:14.593Z,0
2023-11-18T22:59:44.717Z,0.03
2023-11-18T23:04:44.482Z,0
2023-11-18T23:09:44.593Z,0.02
2023-11-18T23:14:44.314Z,0
2023-11-18T23:19:50.244Z,0
2023-11-18T23:24:44.654Z,0.02
2023-11-18T23:29:44.668Z,0
2023-11-18T23:34:45.885Z,0.02
2023-11-18T23:39:48.409Z,0.01
2023-11-18T23:44:41.932Z,0.02
2023-11-18T23:49:41.724Z,0.02
2023-11-18T23:54:42.097Z,0.01
2023-11-18T23:59:42.002Z,0.03
